Weather observations for the past three days for
Oskaloosa, Oskaloosa Municipal Airport
Imperial (Metric)
Date Time (cdt) Wind (mph) Vis. (mi.) Weather Sky Cond. Temperature (ºF) Relative Humidity Wind Chill (°F) Heat Index (°F) Pressure Precipitation (in)
Air Dwpt 6 hour altimeter (in) sea level (mb) 1 hr 3 hr 6 hr
Max. Min.
04 15:35 SW 10 10.00 Fair CLR 96.8 73 46% 107 29.9 0.0
04 15:15 SW 12 10.00 Fair CLR 96.1 73.2 48% 106 29.91 0.0
04 14:55 SW 10 G 17 10.00 Fair CLR 95.9 73.6 49% 106 29.91 0.0
04 14:35 S 13 10.00 Fair CLR 95.4 74.3 51% 107 29.91 0.0
04 14:15 SW 10 10.00 Fair CLR 94.6 72.9 49% 104 29.92 0.0
04 13:55 SW 13 G 18 10.00 Fair CLR 95 72.1 48% 104 29.93 0.0
04 13:35 SW 12 G 16 10.00 Fair CLR 94.8 73.2 50% 105 29.94 0.0
04 13:15 SW 12 10.00 Fair CLR 94.5 73.9 52% 105 29.94 0.0
04 12:55 SW 10 10.00 Fair CLR 93.9 73.6 94.5 73.6 52% 104 29.95 0.0
04 12:35 SW 8 G 17 10.00 Fair CLR 93.6 73.2 52% 103 29.95 0.0
04 12:15 SW 13 G 17 10.00 Fair CLR 93.2 73.6 53% 103 29.96 0.0
04 11:55 W 12 G 17 10.00 Fair CLR 92.7 73 53% 102 29.96 0.0
04 11:35 W 9 10.00 Fair CLR 92.3 73.2 54% 101 29.96 0.0
04 11:15 W 12 10.00 Fair CLR 91.4 73 55% 100 29.96 0.0
04 10:55 W 14 G 20 10.00 Fair CLR 90.7 72.9 56% 99 29.96 0.0
04 10:35 W 13 10.00 Fair CLR 90.1 73.2 58% 99 29.96 0.0
04 10:15 SW 7 G 10 10.00 Fair CLR 88.9 73.6 61% 97 29.95 0.0
04 09:55 SW 8 10.00 Fair CLR 86.9 73.9 65% 95 29.95 0.0
04 09:35 SW 8 10.00 Fair CLR 85.3 73.6 68% 93 29.95 0.0
04 09:15 SW 6 10.00 Fair CLR 84.2 73.4 70% 91 29.95 0.0
04 08:55 SW 6 10.00 Fair CLR 82.8 73.4 73% 89 29.95 0.0
04 08:35 SW 7 10.00 Fair CLR 81 73.4 78% 86 29.94 0.0
04 08:15 SW 6 10.00 Fair CLR 79.3 73.6 83% 83 29.94 0.0
04 07:55 S 7 10.00 Fair CLR 77.2 72.9 87% 79 29.94 0.0
04 07:35 S 6 10.00 Fair CLR 75.9 72.1 88% 76 29.94 0.0
04 07:15 S 5 10.00 Fair CLR 74.3 71.8 92% 29.94 0.0
04 06:55 S 5 10.00 Fair CLR 73.8 71.1 76.6 73.4 91% 29.93 0.0
04 06:35 S 5 10.00 Fair CLR 73.4 71.2 93% 29.93 0.0
04 06:15 S 6 10.00 Fair CLR 73.6 71.2 92% 29.92 0.0
04 05:55 S 5 10.00 Fair CLR 73.8 71.2 92% 29.92 0.0
04 05:35 S 5 10.00 Fair CLR 73.4 71.4 94% 29.91 0.0
04 05:15 S 5 10.00 Fair CLR 73.8 71.2 92% 29.9 0.0
04 04:55 S 3 10.00 Fair CLR 73.6 71.2 92% 29.9 0.0
04 04:35 S 7 10.00 Fair CLR 73.8 71.2 92% 29.89 0.0
04 04:20 S 6 10.00 Fair CLR 74.3 71.4 91% 29.88 0.0
04 03:55 S 6 10.00 Fair CLR 74.3 71.1 90% 29.88 0.0
04 03:35 S 6 10.00 Fair CLR 74.5 71.1 89% 29.88 0.0
04 03:15 SE 6 10.00 Fair CLR 75.4 71.2 87% 75 29.88 0.0
04 02:55 S 6 10.00 Fair CLR 75.2 71.2 88% 75 29.89 0.0
04 02:35 S 7 10.00 Fair CLR 75.6 71.6 88% 75 29.89 0.0
04 02:15 S 8 10.00 Fair CLR 75.6 71.6 88% 75 29.89 0.0
04 01:55 S 8 10.00 Fair CLR 75.7 71.6 87% 76 29.9 0.0
04 01:35 S 8 10.00 Fair CLR 76.3 71.8 86% 77 29.9 0.0
04 01:15 S 7 10.00 Fair CLR 76.3 71.8 86% 77 29.91 0.0
04 00:55 S 7 10.00 Fair CLR 76.6 71.8 88.7 76.3 85% 78 29.91 0.0
04 00:35 S 6 10.00 Fair CLR 76.5 72 86% 77 29.91 0.0
04 00:15 S 5 10.00 Fair CLR 77 72.3 86% 78 29.9 0.0
03 23:55 S 6 10.00 Fair CLR 77.2 72.5 86% 79 29.9 0.0
03 23:35 S 7 10.00 Fair CLR 77.9 72.7 84% 80 29.9 0.0
03 23:15 S 7 10.00 Fair CLR 77.9 72.7 84% 80 29.9 0.0
03 22:55 S 7 10.00 Fair CLR 78.1 73 85% 81 29.9 0.0
03 22:35 S 7 10.00 Fair CLR 78.4 73.4 85% 81 29.9 0.0
03 22:15 S 7 10.00 Fair CLR 78.4 73.4 85% 81 29.9 0.0
03 21:55 S 6 10.00 Fair CLR 78.8 73.4 84% 82 29.9 0.0
03 21:35 S 7 10.00 Fair CLR 79.3 73.6 83% 83 29.89 0.0
03 21:15 S 7 10.00 Fair CLR 79.7 73.4 81% 84 29.89 0.0
03 20:55 SE 5 10.00 Fair CLR 81.3 73.8 78% 87 29.89 0.0
03 20:35 S 5 10.00 Fair CLR 81 74.3 80% 86 29.88 0.0
03 20:15 S 5 10.00 Fair CLR 81.9 74.8 79% 88 29.87 0.0
03 19:55 S 5 10.00 Fair CLR 82.6 75.2 78% 90 29.86 0.0
03 19:35 S 6 10.00 Fair CLR 84 75.6 76% 92 29.86 0.0
03 19:15 S 7 10.00 Fair CLR 86.5 75.4 69% 96 29.86 0.0
03 18:55 S 7 10.00 Fair CLR 88.9 75.9 97.2 88.9 66% 100 29.86 0.0
03 18:35 Calm 0.00 NULL NULL 91.8 75 58% 103 0 0.0
03 18:15 S 8 0.00 NULL NULL 92.7 74.7 56% 104 29.86 0.0
03 17:55 S 9 10.00 Fair CLR 93.6 74.3 54% 104 29.86 0.0
03 17:35 S 10 10.00 Fair CLR 94.6 75 53% 107 29.86 0.0
03 17:15 S 7 10.00 Fair CLR 95.7 75.7 53% 109 29.88 0.0
03 16:55 SW 7 10.00 Fair CLR 96.8 74.7 49% 109 29.88 0.0
03 16:35 S 5 10.00 Fair CLR 96.8 75.2 50% 110 29.88 0.0
03 16:15 S 5 10.00 Fair CLR 96.4 75.4 51% 109 29.89 0.0
03 15:55 SW 5 10.00 Fair CLR 96.8 73.9 48% 108 29.89 0.0
03 15:35 W 6 10.00 Fair CLR 96.6 73.9 48% 108 29.9 0.0
03 15:15 SW 9 10.00 Fair CLR 96.4 74.1 49% 108 29.9 0.0
03 14:55 SW 6 10.00 Fair CLR 96.1 73.4 48% 106 29.9 0.0
03 14:35 SW 8 10.00 Fair CLR 96.1 73 48% 106 29.91 0.0
03 14:15 W 8 10.00 Fair CLR 95.9 73.9 49% 107 29.92 0.0
03 13:55 SW 8 10.00 Fair CLR 95.9 74.5 50% 107 29.92 0.0
03 13:35 SW 6 10.00 Fair CLR 95.2 74.1 51% 106 29.92 0.0
03 13:15 W 3 10.00 Fair CLR 95 74.3 51% 106 29.92 0.0
03 12:55 SW 6 10.00 Fair CLR 94.6 73.9 94.6 72.7 51% 105 29.92 0.0
03 12:35 W 6 10.00 Fair CLR 94.1 73 51% 103 29.93 0.0
03 12:15 W 8 10.00 Fair CLR 93.9 73.4 51% 104 29.93 0.0
03 11:55 SW 7 10.00 Fair CLR 93.2 73 52% 102 29.93 0.0
03 11:35 W 5 7.00 Fair CLR 92.3 73.8 55% 102 29.94 0.0
03 11:15 SW 5 7.00 Fair CLR 91.6 73.9 56% 101 29.94 0.0
03 10:55 SW 5 7.00 Fair CLR 91.2 74.1 57% 101 29.94 0.0
03 10:35 SW 7 5.00 Fair CLR 90 73.9 59% 99 29.94 0.0
03 10:15 SW 7 7.00 Fair CLR 88.7 73.8 61% 97 29.94 0.0
03 09:55 SW 8 5.00 Fair CLR 87.8 73.6 63% 96 29.94 0.0
03 09:35 SW 7 5.00 Fair CLR 86.2 73.2 65% 94 29.94 0.0
03 09:15 SW 8 5.00 Fair CLR 84.4 72.7 68% 91 29.94 0.0
03 08:55 SW 6 5.00 Fair CLR 82.9 72.9 72% 89 29.94 0.0
03 08:35 SW 6 5.00 Fair CLR 81.5 72.9 75% 87 29.94 0.0
03 08:15 SW 6 4.00 Fair CLR 79.5 73.4 82% 83 29.94 0.0
03 07:55 S 3 5.00 Fair CLR 77.5 72.7 85% 79 29.93 0.0
03 07:35 S 3 4.00 Fair CLR 75.4 71.6 88% 75 29.93 0.0
03 07:15 S 6 7.00 Fair CLR 73.4 70.7 91% 29.92 0.0
03 06:55 S 6 5.00 Fair CLR 72.7 70.2 76.1 72.7 92% 29.92 0.0
03 06:35 S 6 5.00 Fair CLR 73.4 70.3 90% 29.92 0.0
03 06:15 S 6 5.00 Fair CLR 73.8 70.7 90% 29.91 0.0
03 05:55 S 7 5.00 Fair CLR 73.8 70.7 90% 29.9 0.0
03 05:35 S 6 7.00 Fair CLR 74.3 70.7 89% 29.9 0.0
03 05:15 S 7 7.00 Fair CLR 74.5 70.7 88% 29.9 0.0
03 04:55 S 7 7.00 Fair CLR 74.5 70.9 89% 29.9 0.0
03 04:35 S 7 7.00 Fair CLR 74.8 71.1 88% 29.9 0.0
03 04:15 S 7 7.00 Fair CLR 75.2 71.1 87% 75 29.9 0.0
03 03:55 S 7 10.00 Fair CLR 75.4 71.2 87% 75 29.9 0.0
03 03:35 S 7 10.00 Fair CLR 75.6 71.2 87% 76 29.9 0.0
03 03:15 S 7 7.00 Fair CLR 76.1 71.6 86% 77 29.9 0.0
03 02:55 S 7 7.00 Fair CLR 75.7 71.6 87% 76 29.9 0.0
03 02:35 S 8 7.00 Fair CLR 75.2 71.2 88% 75 29.9 0.0
03 02:15 S 6 10.00 Fair CLR 74.8 71.2 89% 29.9 0.0
03 01:55 S 7 10.00 Fair CLR 75.2 71.2 88% 75 29.91 0.0
03 01:35 S 7 10.00 Fair CLR 75.6 71.6 88% 75 29.91 0.0
03 01:15 S 7 10.00 Fair CLR 75.7 71.6 87% 76 29.91 0.0
03 00:55 S 7 10.00 Fair CLR 76.1 71.6 88.9 76.1 86% 77 29.91 0.0
03 00:35 S 7 10.00 Fair CLR 76.3 71.8 86% 77 29.91 0.0
03 00:15 S 6 10.00 Fair CLR 76.5 72.1 87% 77 29.91 0.0
02 23:55 S 6 10.00 Fair CLR 77 72.5 86% 78 29.91 0.0
02 23:35 S 7 10.00 Fair CLR 77 72.5 86% 78 29.91 0.0
02 23:15 S 6 10.00 Fair CLR 77.2 72.9 87% 79 29.91 0.0
02 22:55 S 7 10.00 Fair CLR 77.2 72.9 87% 79 29.91 0.0
02 22:35 S 7 10.00 Fair CLR 77.5 73 86% 79 29.91 0.0
02 22:15 S 6 10.00 Fair CLR 78.3 73.4 85% 81 29.91 0.0
02 21:55 S 8 10.00 Fair CLR 79.3 73.4 82% 83 29.91 0.0
02 21:35 S 7 10.00 Fair CLR 79.7 73.4 81% 84 29.91 0.0
02 21:15 S 6 10.00 Fair CLR 80.1 73.6 81% 84 29.91 0.0
02 20:55 S 5 10.00 Fair CLR 80.8 73.9 80% 86 29.9 0.0
02 20:35 S 6 10.00 Fair CLR 80.8 74.5 81% 86 29.9 0.0
02 20:15 S 5 10.00 Fair CLR 81.7 74.8 80% 88 29.89 0.0
02 19:55 S 6 10.00 Fair CLR 82.4 75.7 80% 90 29.89 0.0
02 19:35 S 7 10.00 Fair CLR 85.1 76.1 75% 95 29.89 0.0
02 19:15 S 7 10.00 Fair CLR 87.1 77.2 72% 99 29.89 0.0
02 18:55 S 6 10.00 Fair CLR 88.9 77.4 96.1 88.9 69% 102 29.89 0.0
02 18:35 S 6 10.00 Fair CLR 90.7 77 64% 104 29.89 0.0
02 18:15 S 6 7.00 Fair CLR 92.5 77.2 61% 107 29.89 0.0
02 17:55 SW 5 10.00 Fair CLR 93.9 76.5 57% 108 29.9 0.0
02 17:35 SW 6 10.00 Fair CLR 94.8 75.4 53% 107 29.9 0.0
02 17:15 SW 7 10.00 Fair CLR 95.2 74.8 52% 107 29.9 0.0
02 16:55 SW 10 10.00 Fair CLR 95.5 73.6 49% 106 29.9 0.0
02 16:35 SW 7 10.00 Fair CLR 95.7 73.6 49% 106 29.9 0.0
02 16:15 SW 9 10.00 Fair CLR 95.9 71.2 45% 104 29.91 0.0
02 15:55 SW 8 10.00 Fair CLR 96.1 73.6 48% 107 29.91 0.0
02 15:35 SW 10 10.00 Fair CLR 95.9 74.3 50% 107 29.92 0.0
02 15:15 SW 15 10.00 Fair CLR 95.9 72.7 47% 105 29.92 0.0
02 14:55 SW 13 10.00 Fair CLR 95.9 72.5 47% 105 29.92 0.0
02 14:35 SW 10 G 16 10.00 Fair CLR 95.5 73.8 49% 106 29.93 0.0
02 14:15 SW 12 10.00 Fair CLR 95.4 72.9 48% 105 29.93 0.0
02 13:55 SW 10 10.00 Fair CLR 95.2 74.3 51% 106 29.94 0.0
02 13:35 SW 13 G 16 7.00 Fair CLR 94.5 72.5 49% 103 29.94 0.0
02 13:15 SW 9 5.00 Fair CLR 94.3 74.3 52% 105 29.94 0.0
02 12:55 SW 8 7.00 Fair CLR 93.2 73.4 93.2 74.3 53% 103 29.95 0.0
02 12:35 SW 10 5.00 Fair CLR 92.5 72.7 53% 101 29.96 0.0
02 12:15 SW 8 5.00 Fair CLR 91.6 74.1 57% 102 29.97 0.0
02 11:55 SW 9 5.00 Fair CLR 91.2 72.7 55% 99 29.97 0.0
02 11:35 S 7 5.00 Fair CLR 90 73.2 58% 98 29.98 0.0
02 11:15 SW 10 5.00 Fair CLR 89.2 71.1 55% 95 29.98 0.0
02 10:55 SW 6 7.00 Fair CLR 89.6 72 56% 97 29.97 0.0
02 10:35 S 6 5.00 Fair CLR 88.2 73.8 62% 97 29.97 0.0
02 10:15 SW 6 5.00 Fair CLR 87.3 73.4 64% 95 29.97 0.0
02 09:55 S 6 5.00 Fair CLR 85.5 72 64% 92 29.97 0.0
02 09:35 S 6 5.00 Fair CLR 84.2 73 69% 91 29.97 0.0
02 09:15 S 5 5.00 Fair CLR 83.1 72.1 70% 89 29.98 0.0
02 08:55 SW 7 5.00 Fair CLR 82.6 72.1 71% 88 29.98 0.0
02 08:35 Calm 4.00 Fair CLR 80.2 72.5 77% 84 29.98 0.0
02 08:15 S 3 5.00 Fair CLR 78.1 72.1 82% 81 29.98 0.0
02 07:55 Calm 5.00 Fair CLR 76.1 71.1 84% 77 29.99 0.0
02 07:35 Calm 4.00 Fair CLR 74.5 70.2 86% 29.99 0.0
02 07:15 W 3 4.00 Fair CLR 74.7 69.4 84% 29.98 0.0
02 06:55 NW 7 5.00 Fair CLR 75.6 69.6 77.9 72.1 82% 76 29.99 0.0
02 06:35 W 12 G 29 7.00 Fair CLR 73.2 69.4 88% 29.97 0.0
02 06:15 S 6 7.00 Fair CLR 72.5 68.9 89% 29.95 0.0
02 05:55 S 7 5.00 Fair CLR 72.1 68.9 90% 29.95 0.0
02 05:35 S 6 5.00 Fair CLR 72.5 68.5 87% 29.95 0.0
02 05:15 S 6 7.00 Fair CLR 72.1 68.4 88% 29.95 0.0
02 04:55 S 6 5.00 Fair CLR 73 68.4 85% 29.95 0.0
02 04:35 S 7 5.00 Fair CLR 72.9 68.4 86% 29.95 0.0
02 04:15 S 6 7.00 Fair CLR 73 68 84% 29.95 0.0
02 03:55 S 5 5.00 Fair CLR 74.7 68.5 81% 29.95 0.0
02 03:35 SW 6 7.00 Fair CLR 74.3 68.5 82% 29.95 0.0
02 03:15 S 6 5.00 Fair CLR 74.5 68.4 81% 29.95 0.0
02 02:55 S 6 4.00 Fair CLR 73.9 68.4 83% 29.94 0.0
02 02:35 S 6 5.00 Fair CLR 74.5 68.5 82% 29.93 0.0
02 02:15 S 8 5.00 Fair CLR 75.2 68.5 80% 76 29.92 0.0
02 01:55 S 9 5.00 Fair CLR 75.7 68.5 78% 77 29.93 0.0
02 01:35 S 7 5.00 Fair CLR 76.1 68.5 78% 77 29.94 0.0
02 01:15 S 9 7.00 Fair CLR 75.6 68.5 79% 76 29.94 0.0
02 00:55 S 7 5.00 Fair CLR 74.3 68.4 87.8 74.3 82% 29.94 0.0
02 00:35 S 7 7.00 Fair CLR 75 68.4 80% 76 29.94 0.0
02 00:15 S 3 5.00 Fair CLR 75.2 68.5 80% 76 29.95 0.0
01 23:55 S 3 7.00 Fair CLR 74.3 68.9 83% 29.95 0.0
01 23:35 S 5 7.00 Fair CLR 74.8 69.1 82% 29.94 0.0
01 23:15 S 6 10.00 Fair CLR 74.8 69.3 83% 29.94 0.0
01 22:55 S 6 10.00 Fair CLR 75.6 69.8 82% 76 29.94 0.0
01 22:35 S 6 10.00 Fair CLR 76.3 70 81% 77 29.95 0.0
01 22:15 S 6 10.00 Fair CLR 77 70 79% 79 29.95 0.0
01 21:55 S 8 10.00 Fair CLR 76.8 70.2 80% 78 29.94 0.0
01 21:35 S 5 10.00 Fair CLR 78.6 70.3 76% 81 29.94 0.0
01 20:50 S 9 10.00 Fair CLR 79 71.1 77% 82 29.92 0.0
01 20:35 S 9 10.00 Fair CLR 79 71.4 78% 82 29.92 0.0
01 20:15 S 7 10.00 Fair CLR 79.5 72 78% 83 29.92 0.0
01 19:55 S 8 10.00 Fair CLR 80.4 73.2 79% 85 29.92 0.0
01 19:35 S 7 10.00 Fair CLR 82.9 74.5 76% 90 29.92 0.0
01 19:15 S 6 10.00 Fair CLR 85.8 74.7 69% 94 29.92 0.0
01 18:55 S 5 10.00 Fair CLR 88 75.7 95.9 88 67% 99 29.92 0.0
01 18:35 S 5 10.00 Fair CLR 90.5 77.4 65% 104 29.93 0.0
01 18:15 S 3 7.00 Fair CLR 91.9 77.5 63% 107 29.93 0.0
01 17:55 S 6 10.00 Fair CLR 93.2 75.7 57% 106 29.93 0.0
01 17:35 S 5 10.00 Fair CLR 94.5 76.1 55% 108 29.93 0.0
01 17:15 SW 7 10.00 Fair CLR 95 72.7 49% 104 29.93 0.0
01 16:55 SW 7 10.00 Fair CLR 95.2 71.1 46% 103 29.93 0.0
01 16:35 SW 7 10.00 Fair CLR 95.9 73.9 49% 107 29.93 0.0
01 16:15 SW 9 10.00 Fair CLR 95.9 71.2 45% 104 29.93 0.0
01 15:55 SW 10 10.00 Fair CLR 95.9 70.7 44% 103 29.94 0.0
Date Time (cdt) Wind (mph) Vis. (mi.) Weather Sky Cond. Air Dwpt Max. Min. Relative Humidity Wind Chill (°F) Heat Index (°F) altimeter (in) sea level (mb) 1 hr 3 hr 6 hr
6 hour
Temperature (ºF) Pressure Precipitation (in)